createdAt,value
2023-01-04T00:00:53.365Z,22.59
2023-01-04T00:01:53.305Z,22.59
2023-01-04T00:02:53.469Z,22.59
2023-01-04T00:03:53.404Z,22.59
2023-01-04T00:04:53.315Z,22.59
2023-01-04T00:05:53.324Z,22.59
2023-01-04T00:06:53.306Z,22.59
2023-01-04T00:07:53.300Z,22.59
2023-01-04T00:08:53.299Z,22.59
2023-01-04T00:09:53.299Z,22.59
2023-01-04T00:10:53.310Z,22.59
2023-01-04T00:11:53.307Z,22.59
2023-01-04T00:12:53.327Z,22.59
2023-01-04T00:13:53.304Z,22.59
2023-01-04T00:14:53.308Z,22.59
2023-01-04T00:15:53.370Z,22.59
2023-01-04T00:16:53.313Z,22.59
2023-01-04T00:17:53.300Z,22.59
2023-01-04T00:18:53.326Z,22.59
2023-01-04T00:19:53.321Z,22.59
2023-01-04T00:20:53.306Z,22.59
2023-01-04T00:21:53.366Z,22.59
2023-01-04T00:22:53.304Z,22.59
2023-01-04T00:23:53.304Z,22.59
2023-01-04T00:24:53.302Z,22.59
2023-01-04T00:25:53.309Z,22.59
2023-01-04T00:26:53.330Z,22.59
2023-01-04T00:27:53.311Z,22.59
2023-01-04T00:28:54.501Z,22.59
2023-01-04T00:29:53.322Z,22.59
2023-01-04T00:30:53.348Z,22.59
2023-01-04T00:31:53.353Z,22.59
2023-01-04T00:32:53.317Z,22.59
2023-01-04T00:33:53.315Z,22.59
2023-01-04T00:34:53.302Z,22.59
2023-01-04T00:35:53.298Z,22.59
2023-01-04T00:36:53.307Z,22.59
2023-01-04T00:37:53.304Z,22.59
2023-01-04T00:38:53.319Z,22.59
2023-01-04T00:39:53.313Z,22.59
2023-01-04T00:40:53.308Z,22.59
2023-01-04T00:42:01.613Z,22.59
2023-01-04T00:42:53.311Z,22.59
2023-01-04T00:43:53.323Z,22.59
2023-01-04T00:44:53.352Z,22.59
2023-01-04T00:45:53.379Z,22.59
2023-01-04T00:46:53.427Z,22.59
2023-01-04T00:47:53.312Z,22.59
2023-01-04T00:48:56.698Z,22.59
2023-01-04T00:49:53.347Z,22.59
2023-01-04T00:50:53.316Z,22.59
2023-01-04T00:51:53.316Z,22.59
2023-01-04T00:52:53.322Z,22.59
2023-01-04T00:53:53.310Z,22.59
2023-01-04T00:54:53.307Z,22.59
2023-01-04T00:55:53.319Z,22.59
2023-01-04T00:56:53.301Z,22.59
2023-01-04T00:57:53.343Z,22.59
2023-01-04T00:58:53.314Z,22.59
2023-01-04T00:59:53.319Z,22.59
2023-01-04T01:00:53.335Z,22.59
2023-01-04T01:01:53.438Z,22.59
2023-01-04T01:02:53.534Z,22.59
2023-01-04T01:03:53.344Z,22.59
2023-01-04T01:04:53.316Z,22.59
2023-01-04T01:05:53.317Z,22.59
2023-01-04T01:06:53.315Z,22.59
2023-01-04T01:07:53.309Z,22.59
2023-01-04T01:08:53.323Z,22.59
2023-01-04T01:09:53.330Z,22.59
2023-01-04T01:10:53.316Z,22.59
2023-01-04T01:11:53.345Z,22.59
2023-01-04T01:12:53.335Z,22.59
2023-01-04T01:13:53.335Z,22.59
2023-01-04T01:14:57.272Z,22.59
2023-01-04T01:15:53.350Z,22.59
2023-01-04T01:16:56.903Z,22.59
2023-01-04T01:17:53.321Z,22.59
2023-01-04T01:18:53.313Z,22.59
2023-01-04T01:19:53.306Z,22.59
2023-01-04T01:20:53.321Z,22.59
2023-01-04T01:21:53.358Z,22.59
2023-01-04T01:22:53.317Z,22.59
2023-01-04T01:23:53.319Z,22.59
2023-01-04T01:24:53.325Z,22.59
2023-01-04T01:25:53.345Z,22.59
2023-01-04T01:26:53.349Z,22.59
2023-01-04T01:27:53.345Z,22.59
2023-01-04T01:28:53.332Z,22.59
2023-01-04T01:29:53.336Z,22.59
2023-01-04T01:30:53.320Z,22.59
2023-01-04T01:31:53.413Z,22.59
2023-01-04T01:32:53.352Z,22.59
2023-01-04T01:33:53.332Z,22.59
2023-01-04T01:34:53.314Z,22.59
2023-01-04T01:35:53.316Z,22.59
2023-01-04T01:36:53.337Z,22.59
2023-01-04T01:37:53.329Z,22.59
2023-01-04T01:38:53.344Z,22.59
2023-01-04T01:39:53.331Z,22.59
2023-01-04T01:40:53.320Z,22.59
2023-01-04T01:41:53.327Z,22.59
2023-01-04T01:42:53.321Z,22.59
2023-01-04T01:43:53.315Z,22.59
2023-01-04T01:44:53.317Z,22.59
2023-01-04T01:45:53.352Z,22.59
2023-01-04T01:46:53.384Z,22.59
2023-01-04T01:47:53.321Z,22.59
2023-01-04T01:48:53.361Z,22.59
2023-01-04T01:49:53.330Z,22.59
2023-01-04T01:50:53.323Z,22.59
2023-01-04T01:51:53.320Z,22.59
2023-01-04T01:52:53.332Z,22.59
2023-01-04T01:53:53.328Z,22.59
2023-01-04T01:54:53.328Z,22.59
2023-01-04T01:55:53.317Z,22.59
2023-01-04T01:56:53.330Z,22.59
2023-01-04T01:57:53.314Z,22.59
2023-01-04T01:58:53.323Z,22.59
2023-01-04T01:59:53.317Z,22.59
2023-01-04T02:00:53.315Z,22.59
2023-01-04T02:01:53.450Z,22.59
2023-01-04T02:02:53.649Z,22.59
2023-01-04T02:03:53.334Z,22.59
2023-01-04T02:04:53.346Z,22.59
2023-01-04T02:05:53.324Z,22.59
2023-01-04T02:06:53.335Z,22.59
2023-01-04T02:07:53.324Z,22.59
2023-01-04T02:08:53.332Z,22.59
2023-01-04T02:09:53.379Z,22.59
2023-01-04T02:10:53.325Z,22.59
2023-01-04T02:11:53.343Z,22.59
2023-01-04T02:12:53.333Z,22.59
2023-01-04T02:13:53.345Z,22.59
2023-01-04T02:14:53.344Z,22.59
2023-01-04T02:15:53.355Z,22.59
2023-01-04T02:16:53.337Z,22.59
2023-01-04T02:17:53.340Z,22.59
2023-01-04T02:18:53.351Z,22.59
2023-01-04T02:19:53.340Z,22.59
2023-01-04T02:20:53.363Z,22.59
2023-01-04T02:21:53.339Z,22.59
2023-01-04T02:22:53.356Z,22.59
2023-01-04T02:23:53.332Z,22.59
2023-01-04T02:24:53.322Z,22.59
2023-01-04T02:25:53.326Z,22.59
2023-01-04T02:26:53.341Z,22.59
2023-01-04T02:27:53.349Z,22.59
2023-01-04T02:28:53.337Z,22.59
2023-01-04T02:29:53.326Z,22.59
2023-01-04T02:30:53.342Z,22.59
2023-01-04T02:31:53.366Z,22.59
2023-01-04T02:32:53.323Z,22.59
2023-01-04T02:33:53.336Z,22.59
2023-01-04T02:34:58.456Z,22.59
2023-01-04T02:35:53.329Z,22.59
2023-01-04T02:36:53.341Z,22.59
2023-01-04T02:37:53.363Z,22.59
2023-01-04T02:38:53.363Z,22.59
2023-01-04T02:39:53.336Z,22.59
2023-01-04T02:40:53.345Z,22.59
2023-01-04T02:41:53.340Z,22.59
2023-01-04T02:42:53.338Z,22.59
2023-01-04T02:43:53.332Z,22.59
2023-01-04T02:44:53.436Z,22.59
2023-01-04T02:45:53.335Z,22.59
2023-01-04T02:46:53.387Z,22.59
2023-01-04T02:47:53.332Z,22.59
2023-01-04T02:48:53.337Z,22.59
2023-01-04T02:49:53.349Z,22.59
2023-01-04T02:50:53.336Z,22.59
2023-01-04T02:51:53.333Z,22.59
2023-01-04T02:52:53.365Z,22.59
2023-01-04T02:53:53.351Z,22.59
2023-01-04T02:54:53.332Z,22.59
2023-01-04T02:55:53.333Z,22.59
2023-01-04T02:56:53.330Z,22.59
2023-01-04T02:57:53.332Z,22.59
2023-01-04T02:58:53.354Z,22.59
2023-01-04T02:59:53.342Z,22.59
2023-01-04T03:00:53.333Z,22.59
2023-01-04T03:01:53.465Z,22.59
2023-01-04T03:02:53.402Z,22.59
2023-01-04T03:03:53.419Z,22.59
2023-01-04T03:04:53.330Z,22.59
2023-01-04T03:05:53.330Z,22.59
2023-01-04T03:06:53.340Z,22.59
2023-01-04T03:07:53.341Z,22.59
2023-01-04T03:08:53.366Z,22.59
2023-01-04T03:09:53.330Z,22.59
2023-01-04T03:10:53.349Z,22.59
2023-01-04T03:11:53.334Z,22.59
2023-01-04T03:12:53.342Z,22.59
2023-01-04T03:13:53.329Z,22.59
2023-01-04T03:14:53.341Z,22.59
2023-01-04T03:15:53.402Z,22.59
2023-01-04T03:16:53.331Z,22.59
2023-01-04T03:17:53.352Z,22.59
2023-01-04T03:18:53.362Z,22.59
2023-01-04T03:19:53.357Z,22.59
2023-01-04T03:20:53.344Z,22.59
2023-01-04T03:21:53.348Z,22.59
2023-01-04T03:22:53.349Z,22.59
2023-01-04T03:23:53.350Z,22.59
2023-01-04T03:24:53.409Z,22.59
2023-01-04T03:25:53.332Z,22.59
2023-01-04T03:26:53.361Z,22.59
2023-01-04T03:27:53.337Z,22.59
2023-01-04T03:28:53.394Z,22.59
2023-01-04T03:29:53.341Z,22.59
2023-01-04T03:30:53.416Z,22.59
2023-01-04T03:31:53.404Z,22.59
2023-01-04T03:32:53.329Z,22.59
2023-01-04T03:33:53.350Z,22.59
2023-01-04T03:34:53.345Z,22.59
2023-01-04T03:35:53.348Z,22.59
2023-01-04T03:36:53.349Z,22.59
2023-01-04T03:37:53.341Z,22.59
2023-01-04T03:38:53.333Z,22.59
2023-01-04T03:39:53.334Z,22.59
2023-01-04T03:40:53.374Z,22.59
2023-01-04T03:41:53.354Z,22.59
2023-01-04T03:42:53.381Z,22.59
2023-01-04T03:43:53.354Z,22.59
2023-01-04T03:44:53.336Z,22.59
2023-01-04T03:45:53.345Z,22.59
2023-01-04T03:46:53.417Z,22.59
2023-01-04T03:47:53.370Z,22.59
2023-01-04T03:48:53.356Z,22.59
2023-01-04T03:49:53.357Z,22.59
2023-01-04T03:50:53.342Z,22.59
2023-01-04T03:51:53.350Z,22.59
2023-01-04T03:52:53.344Z,22.59
2023-01-04T03:53:53.346Z,22.59
2023-01-04T03:54:53.361Z,22.59
2023-01-04T03:55:53.354Z,22.59
2023-01-04T03:56:53.373Z,22.59
2023-01-04T03:57:53.359Z,22.59
2023-01-04T03:58:53.345Z,22.59
2023-01-04T03:59:53.356Z,22.59
2023-01-04T04:00:53.421Z,22.59
2023-01-04T04:01:53.389Z,22.59
2023-01-04T04:02:53.371Z,22.59
2023-01-04T04:03:53.369Z,22.59
2023-01-04T04:04:53.344Z,22.59
2023-01-04T04:05:53.345Z,22.59
2023-01-04T04:06:53.345Z,22.59
2023-01-04T04:07:53.344Z,22.59
2023-01-04T04:08:53.364Z,22.59
2023-01-04T04:09:53.338Z,22.59
2023-01-04T04:10:53.369Z,22.59
2023-01-04T04:11:53.354Z,22.59
2023-01-04T04:12:53.381Z,22.59
2023-01-04T04:13:53.360Z,22.59
2023-01-04T04:14:53.357Z,22.59
2023-01-04T04:15:53.364Z,22.59
2023-01-04T04:16:53.411Z,22.59
2023-01-04T04:17:53.358Z,22.59
2023-01-04T04:18:53.349Z,22.59
2023-01-04T04:19:53.352Z,22.59
2023-01-04T04:20:53.337Z,22.59
2023-01-04T04:21:53.373Z,22.59
2023-01-04T04:22:53.348Z,22.59
2023-01-04T04:23:53.343Z,22.59
2023-01-04T04:24:53.345Z,22.59
2023-01-04T04:25:53.352Z,22.59
2023-01-04T04:26:53.355Z,22.59
2023-01-04T04:27:53.348Z,22.59
2023-01-04T04:28:53.378Z,22.59
2023-01-04T04:29:53.352Z,22.59
2023-01-04T04:30:53.380Z,22.59
2023-01-04T04:31:53.460Z,22.59
2023-01-04T04:32:53.358Z,22.59
2023-01-04T04:33:53.375Z,22.59
2023-01-04T04:34:53.361Z,22.59
2023-01-04T04:35:53.351Z,22.59
2023-01-04T04:36:53.368Z,22.59
2023-01-04T04:37:53.351Z,22.59
2023-01-04T04:38:53.369Z,22.59
2023-01-04T04:39:53.356Z,22.59
2023-01-04T04:40:53.351Z,22.59
2023-01-04T04:41:53.356Z,22.59
2023-01-04T04:42:53.358Z,22.59
2023-01-04T04:43:53.349Z,22.59
2023-01-04T04:44:53.374Z,22.59
2023-01-04T04:45:53.423Z,22.59
2023-01-04T04:46:53.483Z,22.59
2023-01-04T04:47:53.349Z,22.59
2023-01-04T04:48:53.353Z,22.59
2023-01-04T04:49:53.360Z,22.59
2023-01-04T04:50:53.365Z,22.59
2023-01-04T04:51:53.391Z,22.59
2023-01-04T04:52:56.105Z,22.59
2023-01-04T04:53:53.375Z,22.59
2023-01-04T04:54:53.366Z,22.59
2023-01-04T04:55:53.360Z,22.59
2023-01-04T04:56:53.345Z,22.59
2023-01-04T04:57:53.369Z,22.59
2023-01-04T04:58:53.379Z,22.59
2023-01-04T04:59:53.350Z,22.59
2023-01-04T05:00:53.449Z,22.59
2023-01-04T05:01:53.560Z,22.59
2023-01-04T05:02:53.583Z,22.59
2023-01-04T05:03:53.368Z,22.59
2023-01-04T05:04:53.368Z,22.59
2023-01-04T05:05:53.352Z,22.59
2023-01-04T05:06:53.363Z,22.59
2023-01-04T05:07:53.372Z,22.59
2023-01-04T05:08:53.375Z,22.59
2023-01-04T05:09:53.355Z,22.59
2023-01-04T05:10:53.356Z,22.59
2023-01-04T05:11:53.362Z,22.59
2023-01-04T05:12:57.732Z,22.59
2023-01-04T05:13:53.367Z,22.59
2023-01-04T05:14:53.366Z,22.59
2023-01-04T05:15:53.377Z,22.59
2023-01-04T05:16:53.461Z,22.59
2023-01-04T05:17:53.372Z,22.59
2023-01-04T05:18:53.357Z,22.59
2023-01-04T05:19:53.368Z,22.59
2023-01-04T05:20:53.371Z,22.59
2023-01-04T05:21:53.379Z,22.59
2023-01-04T05:22:53.374Z,22.59
2023-01-04T05:23:53.350Z,22.59
2023-01-04T05:24:53.360Z,22.59
2023-01-04T05:25:53.364Z,22.59
2023-01-04T05:26:53.355Z,22.59
2023-01-04T05:27:53.371Z,22.59
2023-01-04T05:28:54.028Z,22.59
2023-01-04T05:29:53.352Z,22.59
2023-01-04T05:30:53.509Z,22.59
2023-01-04T05:31:53.434Z,22.59
2023-01-04T05:32:53.378Z,22.59
2023-01-04T05:33:53.353Z,22.59
2023-01-04T05:34:53.365Z,22.59
2023-01-04T05:35:53.376Z,22.59
2023-01-04T05:36:53.370Z,22.59
2023-01-04T05:37:53.371Z,22.59
2023-01-04T05:38:53.380Z,22.59
2023-01-04T05:39:53.383Z,22.59
2023-01-04T05:40:53.385Z,22.59
2023-01-04T05:41:53.369Z,22.59
2023-01-04T05:42:53.396Z,22.59
2023-01-04T05:43:53.384Z,22.59
2023-01-04T05:44:53.363Z,22.59
2023-01-04T05:45:53.404Z,22.59
2023-01-04T05:46:53.373Z,22.59
2023-01-04T05:47:53.377Z,22.59
2023-01-04T05:48:53.384Z,22.59
2023-01-04T05:49:53.402Z,22.59
2023-01-04T05:50:53.373Z,22.59
2023-01-04T05:51:53.382Z,22.59
2023-01-04T05:52:53.400Z,22.59
2023-01-04T05:53:53.395Z,22.59
2023-01-04T05:54:53.374Z,22.59
2023-01-04T05:55:53.380Z,22.59
2023-01-04T05:56:53.367Z,22.59
2023-01-04T05:57:53.390Z,22.59
2023-01-04T05:58:53.390Z,22.59
2023-01-04T05:59:53.389Z,22.59
2023-01-04T06:00:53.369Z,22.59
2023-01-04T06:01:53.451Z,22.59
2023-01-04T06:02:53.483Z,22.59
2023-01-04T06:03:53.418Z,22.59
2023-01-04T06:04:58.622Z,22.59
2023-01-04T06:05:53.388Z,22.59
2023-01-04T06:06:53.368Z,22.59
2023-01-04T06:07:53.390Z,22.59
2023-01-04T06:08:53.389Z,22.59
2023-01-04T06:09:53.391Z,22.59
2023-01-04T06:10:53.367Z,22.59
2023-01-04T06:11:53.372Z,22.59
2023-01-04T06:12:53.389Z,22.59
2023-01-04T06:13:53.385Z,22.59
2023-01-04T06:14:53.368Z,22.59
2023-01-04T06:15:53.382Z,22.59
2023-01-04T06:16:53.391Z,22.59
2023-01-04T06:17:53.386Z,22.59
2023-01-04T06:18:53.390Z,22.59
2023-01-04T06:19:53.379Z,22.59
2023-01-04T06:20:53.421Z,22.59
2023-01-04T06:21:53.445Z,22.59
2023-01-04T06:22:53.382Z,22.59
2023-01-04T06:23:53.391Z,22.59
2023-01-04T06:24:53.386Z,22.59
2023-01-04T06:25:53.382Z,22.59
2023-01-04T06:26:53.378Z,22.59
2023-01-04T06:27:53.384Z,22.59
2023-01-04T06:28:53.364Z,22.59
2023-01-04T06:29:53.380Z,22.59
2023-01-04T06:30:53.449Z,22.59
2023-01-04T06:31:53.387Z,22.59
2023-01-04T06:32:53.377Z,22.59
2023-01-04T06:33:53.373Z,22.59
2023-01-04T06:34:53.391Z,22.59
2023-01-04T06:35:53.374Z,22.59
2023-01-04T06:36:53.415Z,22.59
2023-01-04T06:37:53.395Z,22.59
2023-01-04T06:38:53.377Z,22.59
2023-01-04T06:39:53.382Z,22.59
2023-01-04T06:40:53.383Z,22.59
2023-01-04T06:41:53.383Z,22.59
2023-01-04T06:42:53.380Z,22.59
2023-01-04T06:43:53.384Z,22.59
2023-01-04T06:44:53.408Z,22.59
2023-01-04T06:45:53.443Z,22.59
2023-01-04T06:46:53.381Z,22.59
2023-01-04T06:47:53.399Z,22.59
2023-01-04T06:48:53.383Z,22.59
2023-01-04T06:49:53.376Z,22.59
2023-01-04T06:50:53.434Z,22.59
2023-01-04T06:51:53.394Z,22.59
2023-01-04T06:52:53.419Z,22.59
2023-01-04T06:53:53.385Z,22.59
2023-01-04T06:54:53.402Z,22.59
2023-01-04T06:55:53.384Z,22.59
2023-01-04T06:56:53.384Z,22.59
2023-01-04T06:57:59.137Z,22.59
2023-01-04T06:58:53.375Z,22.59
2023-01-04T06:59:53.394Z,22.59
2023-01-04T07:00:53.484Z,22.59
2023-01-04T07:01:53.491Z,22.59
2023-01-04T07:03:12.909Z,22.59
2023-01-04T07:03:53.396Z,22.59
2023-01-04T07:04:53.391Z,22.59
2023-01-04T07:05:53.399Z,22.59
2023-01-04T07:06:53.389Z,22.59
2023-01-04T07:07:53.405Z,22.59
2023-01-04T07:08:53.403Z,22.59
2023-01-04T07:09:53.389Z,22.59
2023-01-04T07:10:53.383Z,22.59
2023-01-04T07:11:53.383Z,22.59
2023-01-04T07:12:53.412Z,22.59
2023-01-04T07:13:53.397Z,22.59
2023-01-04T07:14:53.419Z,22.59
2023-01-04T07:15:53.435Z,22.59
2023-01-04T07:16:53.404Z,22.59
2023-01-04T07:17:53.430Z,22.59
2023-01-04T07:18:53.401Z,22.59
2023-01-04T07:19:53.386Z,22.59
2023-01-04T07:20:53.396Z,22.59
2023-01-04T07:21:53.407Z,22.59
2023-01-04T07:22:53.394Z,22.59
2023-01-04T07:23:53.403Z,22.59
2023-01-04T07:24:53.424Z,22.59
2023-01-04T07:25:53.412Z,22.59
2023-01-04T07:26:53.437Z,22.59
2023-01-04T07:27:53.427Z,22.59
2023-01-04T07:28:53.394Z,22.59
2023-01-04T07:29:53.406Z,22.59
2023-01-04T07:30:53.457Z,22.59
2023-01-04T07:31:53.407Z,22.59
2023-01-04T07:32:53.387Z,22.59
2023-01-04T07:33:53.420Z,22.59
2023-01-04T07:34:53.391Z,22.59
2023-01-04T07:35:53.397Z,22.59
2023-01-04T07:36:53.391Z,22.59
2023-01-04T07:37:58.086Z,22.59
2023-01-04T07:38:53.387Z,22.59
2023-01-04T07:39:53.411Z,22.59
2023-01-04T07:40:55.707Z,22.59
2023-01-04T07:41:53.405Z,22.59
2023-01-04T07:42:53.400Z,22.59
2023-01-04T07:43:53.418Z,22.59
2023-01-04T07:44:53.386Z,22.59
2023-01-04T07:45:53.476Z,22.59
2023-01-04T07:46:53.529Z,22.59
2023-01-04T07:47:53.407Z,22.59
2023-01-04T07:48:53.391Z,22.59
2023-01-04T07:49:53.398Z,22.59
2023-01-04T07:50:53.400Z,22.59
2023-01-04T07:51:53.413Z,22.59
2023-01-04T07:52:53.393Z,22.59
2023-01-04T07:53:53.401Z,22.59
2023-01-04T07:54:53.410Z,22.59
2023-01-04T07:55:53.401Z,22.59
2023-01-04T07:56:53.427Z,22.59
2023-01-04T07:57:53.407Z,22.59
2023-01-04T07:58:53.399Z,22.59
2023-01-04T07:59:53.414Z,22.59
2023-01-04T08:00:53.398Z,22.59
2023-01-04T08:01:53.513Z,22.59
2023-01-04T08:02:53.583Z,22.59
2023-01-04T08:03:53.409Z,22.59
2023-01-04T08:04:53.438Z,22.59
2023-01-04T08:05:53.406Z,22.59
2023-01-04T08:06:53.414Z,22.59
2023-01-04T08:07:53.415Z,22.59
2023-01-04T08:08:53.412Z,22.59
2023-01-04T08:09:53.412Z,22.59
2023-01-04T08:10:53.391Z,22.59
2023-01-04T08:11:53.408Z,22.59
2023-01-04T08:12:53.433Z,22.59
2023-01-04T08:13:53.399Z,22.59
2023-01-04T08:14:53.410Z,22.59
2023-01-04T08:15:53.411Z,22.59
2023-01-04T08:16:53.395Z,22.59
2023-01-04T08:17:53.401Z,22.59
2023-01-04T08:18:53.415Z,22.59
2023-01-04T08:19:53.413Z,22.59
2023-01-04T08:20:58.268Z,22.59
2023-01-04T08:21:53.420Z,22.59
2023-01-04T08:22:53.407Z,22.59
2023-01-04T08:23:53.469Z,22.59
2023-01-04T08:24:53.415Z,22.59
2023-01-04T08:25:53.421Z,22.59
2023-01-04T08:26:53.452Z,22.59
2023-01-04T08:27:53.399Z,22.59
2023-01-04T08:28:53.431Z,22.59
2023-01-04T08:29:53.422Z,22.59
2023-01-04T08:30:53.463Z,22.59
2023-01-04T08:31:53.462Z,22.59
2023-01-04T08:32:53.417Z,22.59
2023-01-04T08:33:53.421Z,22.59
2023-01-04T08:34:53.406Z,22.59
2023-01-04T08:35:53.424Z,22.59
2023-01-04T08:36:53.435Z,22.59
2023-01-04T08:37:53.417Z,22.59
2023-01-04T08:38:59.705Z,22.59
2023-01-04T08:39:53.420Z,22.59
2023-01-04T08:40:58.285Z,22.59
2023-01-04T08:41:58.670Z,22.59
2023-01-04T08:42:53.407Z,22.59
2023-01-04T08:43:53.408Z,22.59
2023-01-04T08:44:58.850Z,22.59
2023-01-04T08:45:53.406Z,22.59
2023-01-04T08:46:53.573Z,22.59
2023-01-04T08:47:53.411Z,22.59
2023-01-04T08:48:53.462Z,22.59
2023-01-04T08:49:53.417Z,22.59
2023-01-04T08:50:53.471Z,22.59
2023-01-04T08:51:53.423Z,22.59
2023-01-04T08:52:53.398Z,22.59
2023-01-04T08:53:53.426Z,22.59
2023-01-04T08:54:53.416Z,22.59
2023-01-04T08:55:53.407Z,22.59
2023-01-04T08:56:53.398Z,22.59
2023-01-04T08:57:53.414Z,22.59
2023-01-04T08:58:53.416Z,22.59
2023-01-04T08:59:53.421Z,22.59
2023-01-04T09:00:53.443Z,22.59
2023-01-04T09:01:53.517Z,22.59
2023-01-04T09:02:53.524Z,22.59
2023-01-04T09:03:53.442Z,22.59
2023-01-04T09:04:53.474Z,22.59
2023-01-04T09:05:53.418Z,22.59
2023-01-04T09:06:53.405Z,22.59
2023-01-04T09:07:53.416Z,22.59
2023-01-04T09:08:53.406Z,22.59
2023-01-04T09:09:53.435Z,22.59
2023-01-04T09:10:53.416Z,22.59
2023-01-04T09:11:53.427Z,22.59
2023-01-04T09:12:53.511Z,22.59
2023-01-04T09:13:53.420Z,22.59
2023-01-04T09:14:53.411Z,22.59
2023-01-04T09:15:53.450Z,22.59
2023-01-04T09:16:53.458Z,22.59
2023-01-04T09:18:21.056Z,22.59
2023-01-04T09:18:53.502Z,22.59
2023-01-04T09:19:53.436Z,22.59
2023-01-04T09:20:53.417Z,22.59
2023-01-04T09:21:53.507Z,22.59
2023-01-04T09:22:53.455Z,22.59
2023-01-04T09:23:53.416Z,22.59
2023-01-04T09:24:53.407Z,22.59
2023-01-04T09:25:53.427Z,22.59
2023-01-04T09:26:53.465Z,22.59
2023-01-04T09:27:53.417Z,22.59
2023-01-04T09:28:53.412Z,22.59
2023-01-04T09:29:53.445Z,22.59
2023-01-04T09:30:53.455Z,22.59
2023-01-04T09:31:53.551Z,22.59
2023-01-04T09:32:53.509Z,22.59
2023-01-04T09:34:22.799Z,22.59
2023-01-04T09:34:53.425Z,22.59
2023-01-04T09:35:53.434Z,22.59
2023-01-04T09:36:53.421Z,22.59
2023-01-04T09:37:53.436Z,22.59
2023-01-04T09:38:53.457Z,22.59
2023-01-04T09:39:53.425Z,22.59
2023-01-04T09:40:53.431Z,22.59
2023-01-04T09:41:53.425Z,149.65
2023-01-04T09:43:19.808Z,159.53
2023-01-04T09:43:53.448Z,177.88
2023-01-04T09:45:53.424Z,175.06
2023-01-04T09:46:53.549Z,175.06
2023-01-04T09:47:53.423Z,175.06
2023-01-04T09:48:53.470Z,175.06
2023-01-04T09:49:53.416Z,175.06
2023-01-04T09:50:53.424Z,175.06
2023-01-04T09:51:53.434Z,175.06
2023-01-04T09:52:53.476Z,175.06
2023-01-04T09:53:53.419Z,175.06
2023-01-04T09:54:54.152Z,175.06
2023-01-04T09:55:53.436Z,175.06
2023-01-04T09:56:53.427Z,175.06
2023-01-04T09:57:53.431Z,175.06
2023-01-04T09:58:53.451Z,175.06
2023-01-04T09:59:53.432Z,175.06
2023-01-04T10:00:53.478Z,175.06
2023-01-04T10:01:53.694Z,175.06
2023-01-04T10:02:53.582Z,175.06
2023-01-04T10:03:53.465Z,175.06
2023-01-04T10:04:53.453Z,175.06
2023-01-04T10:05:53.423Z,146.82
2023-01-04T10:06:53.419Z,156.71
2023-01-04T10:07:53.449Z,135.53
2023-01-04T10:08:53.428Z,175.06
2023-01-04T10:09:53.459Z,151.06
2023-01-04T10:10:53.446Z,141.18
2023-01-04T10:11:53.436Z,151.06
2023-01-04T10:12:58.010Z,151.06
2023-01-04T10:13:53.433Z,151.06
2023-01-04T10:14:53.429Z,151.06
2023-01-04T10:15:53.459Z,151.06
2023-01-04T10:19:50.612Z,153.88
2023-01-04T10:21:23.531Z,172.24
2023-01-04T10:21:53.482Z,172.24
2023-01-04T10:22:53.436Z,172.24
2023-01-04T10:23:53.427Z,172.24
2023-01-04T10:24:53.439Z,172.24
2023-01-04T10:25:53.426Z,172.24
2023-01-04T10:26:53.446Z,172.24
2023-01-04T10:27:53.436Z,172.24
2023-01-04T10:28:53.434Z,172.24
2023-01-04T10:29:53.432Z,172.24
2023-01-04T10:30:53.437Z,172.24
2023-01-04T10:31:53.484Z,172.24
2023-01-04T10:32:53.433Z,172.24
2023-01-04T10:33:53.445Z,172.24
2023-01-04T10:34:53.447Z,172.24
2023-01-04T10:35:53.454Z,172.24
2023-01-04T10:36:53.459Z,172.24
2023-01-04T10:37:53.451Z,172.24
2023-01-04T10:38:53.441Z,172.24
2023-01-04T10:39:53.447Z,172.24
2023-01-04T10:40:53.443Z,172.24
2023-01-04T10:41:53.459Z,172.24
2023-01-04T10:42:53.431Z,172.24
2023-01-04T10:44:10.193Z,172.24
2023-01-04T10:44:53.442Z,172.24
2023-01-04T10:45:53.450Z,172.24
2023-01-04T10:46:53.512Z,172.24
2023-01-04T10:47:53.456Z,172.24
2023-01-04T10:48:53.456Z,172.24
2023-01-04T10:49:53.461Z,172.24
2023-01-04T10:50:53.439Z,172.24
2023-01-04T10:51:53.465Z,172.24
2023-01-04T10:52:53.471Z,172.24
2023-01-04T10:53:53.452Z,172.24
2023-01-04T10:54:53.455Z,172.24
2023-01-04T10:56:23.305Z,172.24
2023-01-04T10:56:53.445Z,172.24
2023-01-04T10:57:53.455Z,172.24
2023-01-04T10:58:53.471Z,172.24
2023-01-04T10:59:53.463Z,172.24
2023-01-04T11:00:53.503Z,172.24
2023-01-04T11:01:53.633Z,172.24
2023-01-04T11:02:53.678Z,172.24
2023-01-04T11:03:53.512Z,172.24
2023-01-04T11:04:53.449Z,172.24
2023-01-04T11:05:53.461Z,172.24
2023-01-04T11:06:53.461Z,172.24
2023-01-04T11:07:53.437Z,199.06
2023-01-04T11:08:53.472Z,211.76
2023-01-04T11:09:53.474Z,214.59
2023-01-04T11:10:53.457Z,199.06
2023-01-04T11:11:53.450Z,211.76
2023-01-04T11:12:53.473Z,211.76
2023-01-04T11:13:53.461Z,149.65
2023-01-04T11:14:53.491Z,139.76
2023-01-04T11:15:53.540Z,139.76
2023-01-04T11:16:53.503Z,139.76
2023-01-04T11:17:53.448Z,190.59
2023-01-04T11:18:53.444Z,192
2023-01-04T11:19:53.462Z,153.88
2023-01-04T11:20:53.453Z,153.88
2023-01-04T11:21:53.469Z,153.88
2023-01-04T11:22:53.497Z,153.88
2023-01-04T11:23:56.459Z,153.88
2023-01-04T11:25:32.855Z,153.88
2023-01-04T11:25:56.022Z,194.82
2023-01-04T11:26:53.472Z,213.18
2023-01-04T11:27:53.441Z,187.76
2023-01-04T11:28:53.485Z,182.12
2023-01-04T11:29:53.509Z,196.24
2023-01-04T11:30:53.478Z,93.18
2023-01-04T11:31:53.526Z,142.59
2023-01-04T11:32:53.471Z,199.06
2023-01-04T11:33:53.470Z,151.06
2023-01-04T11:34:53.465Z,193.41
2023-01-04T11:35:53.452Z,168
2023-01-04T11:36:53.451Z,139.76
2023-01-04T11:37:53.479Z,168
2023-01-04T11:38:53.468Z,184.94
2023-01-04T11:39:53.510Z,134.12
2023-01-04T11:40:53.494Z,165.18
2023-01-04T11:41:57.405Z,152.47
2023-01-04T11:42:53.467Z,152.47
2023-01-04T11:43:53.465Z,152.47
2023-01-04T11:44:53.460Z,152.47
2023-01-04T11:45:53.511Z,152.47
2023-01-04T11:46:53.470Z,152.47
2023-01-04T11:47:53.491Z,152.47
2023-01-04T11:48:53.533Z,152.47
2023-01-04T11:49:53.453Z,206.12
2023-01-04T11:50:53.469Z,190.59
2023-01-04T11:51:53.473Z,153.88
2023-01-04T11:52:53.449Z,112.94
2023-01-04T11:53:53.461Z,127.06
2023-01-04T11:54:53.456Z,125.65
2023-01-04T11:55:53.457Z,125.65
2023-01-04T11:56:53.488Z,125.65
2023-01-04T11:57:53.477Z,125.65
2023-01-04T11:58:53.467Z,125.65
2023-01-04T11:59:53.451Z,125.65
2023-01-04T12:00:53.461Z,69.18
2023-01-04T12:01:53.547Z,69.18
2023-01-04T12:03:02.033Z,69.18
2023-01-04T12:03:53.474Z,69.18
2023-01-04T12:04:53.466Z,69.18
2023-01-04T12:05:53.467Z,69.18
2023-01-04T12:06:53.481Z,69.18
2023-01-04T12:07:53.473Z,69.18
2023-01-04T12:08:53.467Z,69.18
2023-01-04T12:09:53.504Z,69.18
2023-01-04T12:10:53.484Z,69.18
2023-01-04T12:11:53.485Z,83.29
2023-01-04T12:12:53.517Z,62.12
2023-01-04T12:13:53.502Z,29.65
2023-01-04T12:14:53.502Z,64.94
2023-01-04T12:15:53.489Z,64.94
2023-01-04T12:16:53.492Z,64.94
2023-01-04T12:17:53.487Z,64.94
2023-01-04T12:18:53.482Z,64.94
2023-01-04T12:19:53.496Z,64.94
2023-01-04T12:20:53.454Z,64.94
2023-01-04T12:21:53.553Z,64.94
2023-01-04T12:22:53.461Z,64.94
2023-01-04T12:23:53.484Z,64.94
2023-01-04T12:24:58.574Z,64.94
2023-01-04T12:25:53.475Z,64.94
2023-01-04T12:26:53.485Z,64.94
2023-01-04T12:27:53.470Z,64.94
2023-01-04T12:28:53.538Z,64.94
2023-01-04T12:29:53.472Z,64.94
2023-01-04T12:30:53.499Z,64.94
2023-01-04T12:31:53.485Z,64.94
2023-01-04T12:32:53.487Z,64.94
2023-01-04T12:33:53.487Z,64.94
2023-01-04T12:34:53.479Z,64.94
2023-01-04T12:35:53.510Z,64.94
2023-01-04T12:36:53.477Z,64.94
2023-01-04T12:37:53.490Z,64.94
2023-01-04T12:38:53.490Z,64.94
2023-01-04T12:39:53.497Z,64.94
2023-01-04T12:40:53.466Z,64.94
2023-01-04T12:41:53.494Z,64.94
2023-01-04T12:42:53.486Z,64.94
2023-01-04T12:43:53.487Z,64.94
2023-01-04T12:44:53.527Z,64.94
2023-01-04T12:45:53.516Z,64.94
2023-01-04T12:46:53.470Z,64.94
2023-01-04T12:47:53.478Z,64.94
2023-01-04T12:48:53.501Z,64.94
2023-01-04T12:49:53.541Z,64.94
2023-01-04T12:51:05.957Z,64.94
2023-01-04T12:52:20.707Z,64.94
2023-01-04T12:53:53.491Z,64.94